createdAt,value
2023-01-08T00:00:56.806Z,9.00
2023-01-08T00:03:25.376Z,9.00
2023-01-08T00:05:53.345Z,9.00
2023-01-08T00:08:22.540Z,9.00
2023-01-08T00:10:55.566Z,9.00
2023-01-08T00:13:23.475Z,8.90
2023-01-08T00:15:51.397Z,9.00
2023-01-08T00:18:19.508Z,8.90
2023-01-08T00:20:48.048Z,9.00
2023-01-08T00:23:16.709Z,9.00
2023-01-08T00:25:46.138Z,8.90
2023-01-08T00:28:14.961Z,8.90
2023-01-08T00:30:43.038Z,8.90
2023-01-08T00:33:11.584Z,8.90
2023-01-08T00:35:40.051Z,8.90
2023-01-08T00:38:08.326Z,8.90
2023-01-08T00:40:36.959Z,8.90
2023-01-08T00:43:06.186Z,8.90
2023-01-08T00:45:34.292Z,8.90
2023-01-08T00:48:02.197Z,8.90
2023-01-08T00:50:30.064Z,8.90
2023-01-08T00:52:57.985Z,8.90
2023-01-08T00:55:25.818Z,8.90
2023-01-08T00:57:53.843Z,8.90
2023-01-08T01:00:23.137Z,8.90
2023-01-08T01:02:51.013Z,8.90
2023-01-08T01:05:20.389Z,8.90
2023-01-08T01:07:48.236Z,8.90
2023-01-08T01:10:17.032Z,8.90
2023-01-08T01:12:45.248Z,8.90
2023-01-08T01:15:14.922Z,8.90
2023-01-08T01:17:46.447Z,8.90
2023-01-08T01:20:17.233Z,9.00
2023-01-08T01:22:45.360Z,8.90
2023-01-08T01:25:13.292Z,8.90
2023-01-08T01:27:41.251Z,8.90
2023-01-08T01:30:11.039Z,8.90
2023-01-08T01:32:38.929Z,8.90
2023-01-08T01:35:09.217Z,8.90
2023-01-08T01:37:37.255Z,8.90
2023-01-08T01:40:06.083Z,8.90
2023-01-08T01:42:44.000Z,8.90
2023-01-08T01:45:18.143Z,8.90
2023-01-08T01:47:48.805Z,8.90
2023-01-08T01:50:23.155Z,8.80
2023-01-08T01:52:57.301Z,8.90
2023-01-08T01:55:26.660Z,8.90
2023-01-08T01:58:00.699Z,8.90
2023-01-08T02:00:29.374Z,8.90
2023-01-08T02:02:57.699Z,8.90
2023-01-08T02:05:34.983Z,8.90
2023-01-08T02:08:08.791Z,8.90
2023-01-08T02:10:45.074Z,8.90
2023-01-08T02:13:20.401Z,8.90
2023-01-08T02:15:56.282Z,9.00
2023-01-08T02:18:30.263Z,9.00
2023-01-08T02:21:04.785Z,9.00
2023-01-08T02:23:41.857Z,9.00
2023-01-08T02:26:16.914Z,9.00
2023-01-08T02:28:50.104Z,9.00
2023-01-08T02:31:20.107Z,9.00
2023-01-08T02:33:48.288Z,9.00
2023-01-08T02:36:35.544Z,9.00
2023-01-08T02:39:30.731Z,9.00
2023-01-08T02:42:07.412Z,9.00
2023-01-08T02:44:46.353Z,9.00
2023-01-08T02:47:20.652Z,9.00
2023-01-08T02:49:51.655Z,9.00
2023-01-08T02:52:20.856Z,9.00
2023-01-08T02:54:49.947Z,9.10
2023-01-08T02:57:21.101Z,9.10
2023-01-08T02:59:51.297Z,9.10
2023-01-08T03:02:19.481Z,9.10
2023-01-08T03:04:53.662Z,9.10
2023-01-08T03:07:22.607Z,9.10
2023-01-08T03:09:50.614Z,9.00
2023-01-08T03:12:26.028Z,9.00
2023-01-08T03:14:59.042Z,9.00
2023-01-08T03:17:31.732Z,9.00
2023-01-08T03:20:03.628Z,9.00
2023-01-08T03:22:32.719Z,9.00
2023-01-08T03:25:00.778Z,9.10
2023-01-08T03:27:31.895Z,9.10
2023-01-08T03:30:01.261Z,9.10
2023-01-08T03:32:31.553Z,9.10
2023-01-08T03:35:01.397Z,9.10
2023-01-08T03:37:33.986Z,9.10
2023-01-08T03:40:05.921Z,9.10
2023-01-08T03:42:35.325Z,9.20
2023-01-08T03:45:03.889Z,9.10
2023-01-08T03:47:33.846Z,9.20
2023-01-08T03:50:03.786Z,9.10
2023-01-08T03:52:33.923Z,9.10
2023-01-08T03:55:01.918Z,9.10
2023-01-08T03:57:29.772Z,9.10
2023-01-08T03:59:58.978Z,9.10
2023-01-08T04:02:26.913Z,9.10
2023-01-08T04:04:54.828Z,9.00
2023-01-08T04:07:22.914Z,9.00
2023-01-08T04:09:50.933Z,9.00
2023-01-08T04:12:18.802Z,9.00
2023-01-08T04:14:46.665Z,8.90
2023-01-08T04:17:15.825Z,8.90
2023-01-08T04:19:43.771Z,8.90
2023-01-08T04:22:12.211Z,9.00
2023-01-08T04:24:40.141Z,9.00
2023-01-08T04:27:08.062Z,9.00
2023-01-08T04:29:36.000Z,9.00
2023-01-08T04:32:03.912Z,9.00
2023-01-08T04:34:33.181Z,9.00
2023-01-08T04:37:01.855Z,9.00
2023-01-08T04:39:29.962Z,9.00
2023-01-08T04:41:57.838Z,9.10
2023-01-08T04:44:25.681Z,9.10
2023-01-08T04:46:53.509Z,9.00
2023-01-08T04:49:21.629Z,9.10
2023-01-08T04:51:50.833Z,9.10
2023-01-08T04:54:18.753Z,9.10
2023-01-08T04:56:46.623Z,9.20
2023-01-08T04:59:14.624Z,9.10
2023-01-08T05:01:42.565Z,9.10
2023-01-08T05:04:11.860Z,9.20
2023-01-08T05:06:39.664Z,9.20
2023-01-08T05:09:09.091Z,9.10
2023-01-08T05:11:37.340Z,9.20
2023-01-08T05:14:05.575Z,9.20
2023-01-08T05:16:33.473Z,9.20
2023-01-08T05:19:01.363Z,9.20
2023-01-08T05:21:29.149Z,9.20
2023-01-08T05:23:56.996Z,9.20
2023-01-08T05:26:26.297Z,9.20
2023-01-08T05:28:54.189Z,9.20
2023-01-08T05:31:22.163Z,9.20
2023-01-08T05:33:51.388Z,9.20
2023-01-08T05:36:19.419Z,9.20
2023-01-08T05:38:47.250Z,9.20
2023-01-08T05:41:15.064Z,9.20
2023-01-08T05:43:44.263Z,9.20
2023-01-08T05:46:12.155Z,9.10
2023-01-08T05:48:40.116Z,9.20
2023-01-08T05:51:07.958Z,9.20
2023-01-08T05:53:35.892Z,9.20
2023-01-08T05:56:07.765Z,9.20
2023-01-08T05:58:37.167Z,9.20
2023-01-08T06:01:08.385Z,9.20
2023-01-08T06:03:36.345Z,9.20
2023-01-08T06:06:06.215Z,9.20
2023-01-08T06:08:35.961Z,9.10
2023-01-08T06:11:06.234Z,9.20
2023-01-08T06:13:34.613Z,9.10
2023-01-08T06:16:03.074Z,9.20
2023-01-08T06:18:32.488Z,9.20
2023-01-08T06:21:00.326Z,9.20
2023-01-08T06:23:28.180Z,9.20
2023-01-08T06:25:57.340Z,9.20
2023-01-08T06:28:25.252Z,9.20
2023-01-08T06:30:53.282Z,9.20
2023-01-08T06:33:21.817Z,9.10
2023-01-08T06:35:51.197Z,9.20
2023-01-08T06:38:19.940Z,9.20
2023-01-08T06:40:47.911Z,9.20
2023-01-08T06:43:16.022Z,9.10
2023-01-08T06:45:43.933Z,9.10
2023-01-08T06:48:11.727Z,9.10
2023-01-08T06:50:39.550Z,9.10
2023-01-08T06:53:08.840Z,9.10
2023-01-08T06:55:38.115Z,9.10
2023-01-08T06:58:05.916Z,9.10
2023-01-08T07:00:33.834Z,9.10
2023-01-08T07:03:01.773Z,9.00
2023-01-08T07:05:29.743Z,9.10
2023-01-08T07:07:57.715Z,9.10
2023-01-08T07:10:27.451Z,9.10
2023-01-08T07:12:55.332Z,9.10
2023-01-08T07:15:23.186Z,9.10
2023-01-08T07:17:51.134Z,9.10
2023-01-08T07:20:18.996Z,9.10
2023-01-08T07:22:46.874Z,9.10
2023-01-08T07:25:14.728Z,9.10
2023-01-08T07:27:43.933Z,9.10
2023-01-08T07:30:28.388Z,9.10
2023-01-08T07:33:00.579Z,9.10
2023-01-08T07:35:28.646Z,9.00
2023-01-08T07:37:57.125Z,9.00
2023-01-08T07:40:25.062Z,9.10
2023-01-08T07:43:00.603Z,9.00
2023-01-08T07:45:29.256Z,9.00
2023-01-08T07:47:58.935Z,9.10
2023-01-08T07:50:27.805Z,9.00
2023-01-08T07:52:58.888Z,9.00
2023-01-08T07:55:27.444Z,9.00
2023-01-08T07:57:55.310Z,9.00
2023-01-08T08:00:24.556Z,9.10
2023-01-08T08:02:52.436Z,9.10
2023-01-08T08:05:20.341Z,9.10
2023-01-08T08:07:48.181Z,9.10
2023-01-08T08:10:16.146Z,9.10
2023-01-08T08:12:46.028Z,9.10
2023-01-08T08:15:13.939Z,9.10
2023-01-08T08:17:47.406Z,9.20
2023-01-08T08:20:15.891Z,9.20
2023-01-08T08:22:43.693Z,9.20
2023-01-08T08:25:12.309Z,9.20
2023-01-08T08:27:40.150Z,9.20
2023-01-08T08:30:09.706Z,9.20
2023-01-08T08:32:37.979Z,9.20
2023-01-08T08:35:08.078Z,9.20
2023-01-08T08:37:35.925Z,9.30
2023-01-08T08:40:04.001Z,9.30
2023-01-08T08:42:31.859Z,9.30
2023-01-08T08:44:59.689Z,9.30
2023-01-08T08:47:27.569Z,9.30
2023-01-08T08:49:55.553Z,9.30
2023-01-08T08:52:24.774Z,9.30
2023-01-08T08:54:52.622Z,9.30
2023-01-08T08:57:20.415Z,9.30
2023-01-08T08:59:48.316Z,9.40
2023-01-08T09:02:16.311Z,9.40
2023-01-08T09:04:44.278Z,9.40
2023-01-08T09:07:12.153Z,9.30
2023-01-08T09:09:41.452Z,9.30
2023-01-08T09:12:10.061Z,9.30
2023-01-08T09:14:37.961Z,9.30
2023-01-08T09:17:05.823Z,9.30
2023-01-08T09:19:33.675Z,9.40
2023-01-08T09:22:02.845Z,9.40
2023-01-08T09:24:32.194Z,9.40
2023-01-08T09:27:01.359Z,9.40
2023-01-08T09:29:29.229Z,9.40
2023-01-08T09:31:59.744Z,9.30
2023-01-08T09:34:27.604Z,9.30
2023-01-08T09:36:55.433Z,9.30
2023-01-08T09:39:23.461Z,9.30
2023-01-08T09:41:52.600Z,9.40
2023-01-08T09:44:25.142Z,9.40
2023-01-08T09:46:56.449Z,9.40
2023-01-08T09:49:31.859Z,9.50
2023-01-08T09:52:00.469Z,9.50
2023-01-08T09:54:28.354Z,9.60
2023-01-08T09:56:56.236Z,9.60
2023-01-08T09:59:25.519Z,9.60
2023-01-08T10:01:54.447Z,9.60
2023-01-08T10:04:24.587Z,9.60
2023-01-08T10:06:55.886Z,9.70
2023-01-08T10:09:28.345Z,9.80
2023-01-08T10:12:00.174Z,9.80
2023-01-08T10:14:32.664Z,9.90
2023-01-08T10:17:09.469Z,9.90
2023-01-08T10:19:39.822Z,10.00
2023-01-08T10:22:13.720Z,9.90
2023-01-08T10:24:43.134Z,10.00
2023-01-08T10:27:16.240Z,10.00
2023-01-08T10:29:45.723Z,10.00
2023-01-08T10:32:17.288Z,10.00
2023-01-08T10:34:47.614Z,10.00
2023-01-08T10:37:18.870Z,10.00
2023-01-08T10:39:48.390Z,10.00
2023-01-08T10:42:19.036Z,10.00
2023-01-08T10:44:57.087Z,10.00
2023-01-08T10:47:26.699Z,10.10
2023-01-08T10:49:55.236Z,10.00
2023-01-08T10:52:26.677Z,10.10
2023-01-08T10:54:54.905Z,10.10
2023-01-08T10:57:25.491Z,10.10
2023-01-08T10:59:55.496Z,10.00
2023-01-08T11:02:31.501Z,10.00
2023-01-08T11:05:00.229Z,10.10
2023-01-08T11:07:28.857Z,10.20
2023-01-08T11:09:56.937Z,10.20
2023-01-08T11:12:37.105Z,10.30
2023-01-08T11:15:08.988Z,10.30
2023-01-08T11:17:37.025Z,10.30
2023-01-08T11:20:10.321Z,10.40
2023-01-08T11:22:38.199Z,10.40
2023-01-08T11:25:14.410Z,10.30
2023-01-08T11:27:45.488Z,10.20
2023-01-08T11:30:17.649Z,10.30
2023-01-08T11:32:49.840Z,10.30
2023-01-08T11:35:21.924Z,10.20
2023-01-08T11:37:55.322Z,10.10
2023-01-08T11:40:38.388Z,10.10
2023-01-08T11:43:28.718Z,10.00
2023-01-08T11:46:23.520Z,10.00
2023-01-08T11:49:10.927Z,10.10
2023-01-08T11:51:53.088Z,10.10
2023-01-08T11:54:30.363Z,10.10
2023-01-08T11:57:17.211Z,10.10
2023-01-08T11:59:59.652Z,10.20
2023-01-08T12:02:39.390Z,10.30
2023-01-08T12:05:32.397Z,10.20
2023-01-08T12:08:14.025Z,10.30
2023-01-08T12:10:54.926Z,10.40
2023-01-08T12:13:48.161Z,10.40
2023-01-08T12:16:37.329Z,10.50
2023-01-08T12:19:21.134Z,10.40
2023-01-08T12:22:04.199Z,10.40
2023-01-08T12:24:51.882Z,10.40
2023-01-08T12:27:48.634Z,10.50
2023-01-08T12:30:25.160Z,10.50
2023-01-08T12:32:59.311Z,10.50
2023-01-08T12:35:32.909Z,10.50
2023-01-08T12:38:05.546Z,10.40
2023-01-08T12:40:35.495Z,10.40
2023-01-08T12:43:08.176Z,10.50
2023-01-08T12:45:41.114Z,10.40
2023-01-08T12:48:12.075Z,10.40
2023-01-08T12:50:51.049Z,10.40
2023-01-08T12:53:27.965Z,10.40
2023-01-08T12:56:03.868Z,10.50
2023-01-08T12:58:40.045Z,10.50
2023-01-08T13:01:26.808Z,10.40
2023-01-08T13:03:55.932Z,10.40
2023-01-08T13:06:25.263Z,10.40
2023-01-08T13:08:55.162Z,10.50
2023-01-08T13:11:28.792Z,10.60
2023-01-08T13:14:02.109Z,10.60
2023-01-08T13:16:31.689Z,10.70
2023-01-08T13:19:01.539Z,10.70
2023-01-08T13:21:39.340Z,10.60
2023-01-08T13:24:26.659Z,10.50
2023-01-08T13:26:54.952Z,10.50
2023-01-08T13:29:27.899Z,10.50
2023-01-08T13:31:58.313Z,10.50
2023-01-08T13:34:38.773Z,10.50
2023-01-08T13:37:16.475Z,10.50
2023-01-08T13:39:51.306Z,10.50
2023-01-08T13:42:28.404Z,10.60
2023-01-08T13:45:01.168Z,10.60
2023-01-08T13:47:34.653Z,10.60
2023-01-08T13:50:05.435Z,10.70
2023-01-08T13:52:42.133Z,10.70
2023-01-08T13:55:16.230Z,10.70
2023-01-08T13:57:47.544Z,10.70
2023-01-08T14:00:22.277Z,10.80
2023-01-08T14:02:50.945Z,10.70
2023-01-08T14:05:26.333Z,10.70
2023-01-08T14:07:56.062Z,10.60
2023-01-08T14:10:24.344Z,10.60
2023-01-08T14:12:52.958Z,10.60
2023-01-08T14:15:26.752Z,10.50
2023-01-08T14:17:56.709Z,10.50
2023-01-08T14:20:34.173Z,10.50
2023-01-08T14:23:09.665Z,10.40
2023-01-08T14:25:37.795Z,10.40
2023-01-08T14:28:06.988Z,10.40
2023-01-08T14:30:35.550Z,10.40
2023-01-08T14:33:04.000Z,10.30
2023-01-08T14:35:35.578Z,10.30
2023-01-08T14:38:05.649Z,10.20
2023-01-08T14:40:38.883Z,10.20
2023-01-08T14:43:13.198Z,10.10
2023-01-08T14:45:47.342Z,10.20
2023-01-08T14:48:20.223Z,10.00
2023-01-08T14:50:59.894Z,10.00
2023-01-08T14:53:33.503Z,10.00
2023-01-08T14:56:02.585Z,9.90
2023-01-08T14:58:36.229Z,9.80
2023-01-08T15:01:08.478Z,9.80
2023-01-08T15:03:38.837Z,9.70
2023-01-08T15:06:08.105Z,9.70
2023-01-08T15:08:39.128Z,9.70
2023-01-08T15:11:15.412Z,9.60
2023-01-08T15:13:43.394Z,9.60
2023-01-08T15:16:15.349Z,9.50
2023-01-08T15:18:46.412Z,9.50
2023-01-08T15:21:19.380Z,9.40
2023-01-08T15:23:52.230Z,9.30
2023-01-08T15:26:20.303Z,9.20
2023-01-08T15:28:53.574Z,9.20
2023-01-08T15:31:26.425Z,9.10
2023-01-08T15:33:54.365Z,9.10
2023-01-08T15:36:22.260Z,9.00
2023-01-08T15:38:52.217Z,9.00
2023-01-08T15:41:42.134Z,8.90
2023-01-08T15:44:10.641Z,8.90
2023-01-08T15:46:38.455Z,8.90
2023-01-08T15:49:06.299Z,8.90
2023-01-08T15:51:35.578Z,8.90
2023-01-08T15:54:05.108Z,8.80
2023-01-08T15:56:32.952Z,8.70
2023-01-08T15:59:00.754Z,8.70
2023-01-08T16:01:29.278Z,8.60
2023-01-08T16:03:57.139Z,8.60
2023-01-08T16:06:25.073Z,8.50
2023-01-08T16:08:52.934Z,8.50
2023-01-08T16:11:22.172Z,8.50
2023-01-08T16:13:50.004Z,8.50
2023-01-08T16:16:18.478Z,8.40
2023-01-08T16:18:46.301Z,8.40
2023-01-08T16:21:14.720Z,8.40
2023-01-08T16:23:42.692Z,8.30
2023-01-08T16:26:12.591Z,8.30
2023-01-08T16:28:41.983Z,8.40
2023-01-08T16:31:10.589Z,8.40
2023-01-08T16:33:38.698Z,8.30
2023-01-08T16:36:08.669Z,8.20
2023-01-08T16:38:37.297Z,8.10
2023-01-08T16:41:06.288Z,8.10
2023-01-08T16:43:42.933Z,8.10
2023-01-08T16:46:13.605Z,8.10
2023-01-08T16:48:42.108Z,8.10
2023-01-08T16:51:10.628Z,8.10
2023-01-08T16:53:39.162Z,8.10
2023-01-08T16:56:07.668Z,8.00
2023-01-08T16:58:36.131Z,8.10
2023-01-08T17:01:09.226Z,8.00
2023-01-08T17:03:37.201Z,8.00
2023-01-08T17:06:05.685Z,8.00
2023-01-08T17:08:33.561Z,8.00
2023-01-08T17:11:01.323Z,8.00
2023-01-08T17:13:29.194Z,8.00
2023-01-08T17:15:59.722Z,8.00
2023-01-08T17:18:29.107Z,8.00
2023-01-08T17:20:56.979Z,8.00
2023-01-08T17:23:27.442Z,8.00
2023-01-08T17:25:55.594Z,8.10
2023-01-08T17:28:28.166Z,8.20
2023-01-08T17:31:02.175Z,8.20
2023-01-08T17:33:31.616Z,8.20
2023-01-08T17:35:59.598Z,8.20
2023-01-08T17:38:28.375Z,8.20
2023-01-08T17:40:56.228Z,8.20
2023-01-08T17:43:24.075Z,8.20
2023-01-08T17:45:53.591Z,8.20
2023-01-08T17:48:22.996Z,8.20
2023-01-08T17:50:52.165Z,8.20
2023-01-08T17:53:20.103Z,8.20
2023-01-08T17:55:48.010Z,8.10
2023-01-08T17:58:15.887Z,8.20
2023-01-08T18:00:43.820Z,8.20
2023-01-08T18:03:11.800Z,8.20
2023-01-08T18:05:39.576Z,8.20
2023-01-08T18:08:08.764Z,8.30
2023-01-08T18:10:38.334Z,8.30
2023-01-08T18:13:06.325Z,8.30
2023-01-08T18:15:34.784Z,8.30
2023-01-08T18:18:02.927Z,8.30
2023-01-08T18:20:30.754Z,8.30
2023-01-08T18:22:58.602Z,8.30
2023-01-08T18:25:27.752Z,8.30
2023-01-08T18:27:55.593Z,8.30
2023-01-08T18:30:23.756Z,8.30
2023-01-08T18:32:51.644Z,8.30
2023-01-08T18:35:19.478Z,8.40
2023-01-08T18:37:47.324Z,8.40
2023-01-08T18:40:15.260Z,8.40
2023-01-08T18:42:44.468Z,8.40
2023-01-08T18:45:14.461Z,8.40
2023-01-08T18:47:42.611Z,8.40
2023-01-08T18:50:11.567Z,8.40
2023-01-08T18:52:41.170Z,8.40
2023-01-08T18:55:09.550Z,8.40
2023-01-08T18:57:37.379Z,8.40
2023-01-08T19:00:08.170Z,8.40
2023-01-08T19:02:36.145Z,8.30
2023-01-08T19:05:04.717Z,8.30
2023-01-08T19:07:32.613Z,8.30
2023-01-08T19:10:01.156Z,8.30
2023-01-08T19:12:32.279Z,8.30
2023-01-08T19:15:00.223Z,8.20
2023-01-08T19:17:34.087Z,8.20
2023-01-08T19:20:02.122Z,8.20
2023-01-08T19:22:31.883Z,8.20
2023-01-08T19:25:00.896Z,8.20
2023-01-08T19:27:28.802Z,8.10
2023-01-08T19:29:56.651Z,8.10
2023-01-08T19:35:19.255Z,8.00
2023-01-08T19:37:47.203Z,8.00
2023-01-08T19:40:15.331Z,7.90
2023-01-08T19:43:00.764Z,7.90
2023-01-08T19:45:28.720Z,7.80
2023-01-08T19:47:56.766Z,7.80
2023-01-08T19:50:26.040Z,7.80
2023-01-08T19:52:55.560Z,7.70
2023-01-08T19:55:23.681Z,7.70
2023-01-08T19:57:51.835Z,7.60
2023-01-08T20:00:22.226Z,7.60
2023-01-08T20:02:51.231Z,7.60
2023-01-08T20:05:19.229Z,7.60
2023-01-08T20:07:48.600Z,7.50
2023-01-08T20:10:16.606Z,7.50
2023-01-08T20:12:44.450Z,7.50
2023-01-08T20:15:12.276Z,7.50
2023-01-08T20:17:42.518Z,7.40
2023-01-08T20:20:11.705Z,7.40
2023-01-08T20:22:39.609Z,7.30
2023-01-08T20:25:10.066Z,7.30
2023-01-08T20:27:38.469Z,7.30
2023-01-08T20:30:08.487Z,7.20
2023-01-08T20:32:36.362Z,7.20
2023-01-08T20:35:04.673Z,7.20
2023-01-08T20:37:33.303Z,7.10
2023-01-08T20:40:01.241Z,7.10
2023-01-08T20:42:33.914Z,7.10
2023-01-08T20:45:02.528Z,7.00
2023-01-08T20:47:30.312Z,7.00
2023-01-08T20:49:58.275Z,6.90
2023-01-08T20:52:26.123Z,7.00
2023-01-08T20:54:53.980Z,7.00
2023-01-08T20:57:21.782Z,7.00
2023-01-08T20:59:51.109Z,7.00
2023-01-08T21:02:20.549Z,6.90
2023-01-08T21:04:48.401Z,6.90
2023-01-08T21:07:16.362Z,6.90
2023-01-08T21:09:44.927Z,6.90
2023-01-08T21:12:12.866Z,6.90
2023-01-08T21:14:40.720Z,6.90
2023-01-08T21:17:09.937Z,6.90
2023-01-08T21:19:37.734Z,6.80
2023-01-08T21:22:05.570Z,6.70
2023-01-08T21:24:33.482Z,6.70
2023-01-08T21:27:01.304Z,6.70
2023-01-08T21:29:29.274Z,6.70
2023-01-08T21:31:57.309Z,6.70
2023-01-08T21:34:26.982Z,6.60
2023-01-08T21:36:54.857Z,6.70
2023-01-08T21:39:22.834Z,6.70
2023-01-08T21:42:08.574Z,6.70
2023-01-08T21:44:54.218Z,6.60
2023-01-08T21:47:22.153Z,6.70
2023-01-08T21:49:51.337Z,6.60
2023-01-08T21:52:36.899Z,6.60
2023-01-08T21:55:05.104Z,6.60
2023-01-08T21:57:39.195Z,6.60
2023-01-08T22:00:08.715Z,6.60
2023-01-08T22:02:36.978Z,6.70
2023-01-08T22:05:07.039Z,6.70
2023-01-08T22:07:35.377Z,6.70
2023-01-08T22:10:03.476Z,6.70
2023-01-08T22:12:31.374Z,6.70
2023-01-08T22:14:59.303Z,6.70
2023-01-08T22:17:30.248Z,6.70
2023-01-08T22:20:00.182Z,6.70
2023-01-08T22:22:29.534Z,6.70
2023-01-08T22:24:57.304Z,6.70
2023-01-08T22:27:25.206Z,6.70
2023-01-08T22:29:54.375Z,6.70
2023-01-08T22:32:22.213Z,6.80
2023-01-08T22:34:50.416Z,6.80
2023-01-08T22:37:21.517Z,6.80
2023-01-08T22:39:50.956Z,6.80
2023-01-08T22:42:18.798Z,6.80
2023-01-08T22:44:46.573Z,6.80
2023-01-08T22:47:14.476Z,6.80
2023-01-08T22:49:42.274Z,6.80
2023-01-08T22:52:10.728Z,6.90
2023-01-08T22:54:39.608Z,6.90
2023-01-08T22:57:09.320Z,7.00
2023-01-08T22:59:37.415Z,7.00
2023-01-08T23:02:05.311Z,7.00
2023-01-08T23:04:33.442Z,7.00
2023-01-08T23:07:01.250Z,7.00
2023-01-08T23:09:29.365Z,7.00
2023-01-08T23:11:57.207Z,7.00
2023-01-08T23:14:26.474Z,7.00
2023-01-08T23:16:54.304Z,7.00
2023-01-08T23:19:22.166Z,7.00
2023-01-08T23:21:49.922Z,7.00
2023-01-08T23:24:17.939Z,7.00
2023-01-08T23:26:45.836Z,7.00
2023-01-08T23:29:13.743Z,7.00
2023-01-08T23:31:44.112Z,7.00
2023-01-08T23:34:12.470Z,7.00
2023-01-08T23:36:40.654Z,7.00
2023-01-08T23:39:09.337Z,7.00
2023-01-08T23:41:37.143Z,7.00
2023-01-08T23:44:06.716Z,7.00
2023-01-08T23:46:35.141Z,7.10
2023-01-08T23:49:04.874Z,7.10
2023-01-08T23:51:32.699Z,7.10
2023-01-08T23:54:00.770Z,7.10
2023-01-08T23:56:29.198Z,7.10
2023-01-08T23:58:58.161Z,7.00
